Time;durP1;ratioP1;P1;durP2;ratioP2;P2;SDS_P1;SDS_P2;PMS_P1;PMS_P2;Temp;Humidity;BMP_temperature;BMP_pressure;BME280_temperature;BME280_humidity;BME280_pressure;Samples;Min_cycle;Max_cycle;Signal;HPM_P1;HPM_P2
2022/08/03 00:01:04;;;;;;;4.15;2.10;;;17.00;99.90;;;;;;5057813;28;20583;-77
2022/08/03 00:03:29;;;;;;;5.68;2.13;;;17.00;99.90;;;;;;5061967;28;20021;-78
2022/08/03 00:05:55;;;;;;;7.45;1.88;;;16.90;99.90;;;;;;5064200;28;20020;-77
2022/08/03 00:08:20;;;;;;;3.45;2.10;;;16.90;99.90;;;;;;5063898;28;20029;-77
2022/08/03 00:10:46;;;;;;;5.68;2.15;;;16.90;99.90;;;;;;5062190;28;20024;-78
2022/08/03 00:13:12;;;;;;;4.95;1.95;;;16.80;99.90;;;;;;5062937;28;20032;-77
2022/08/03 00:15:39;;;;;;;4.32;2.00;;;16.80;99.90;;;;;;5062552;28;20035;-78
2022/08/03 00:18:05;;;;;;;3.33;1.80;;;16.80;99.90;;;;;;5062419;28;20074;-79
2022/08/03 00:20:31;;;;;;;3.08;1.90;;;16.80;99.90;;;;;;5062585;28;20024;-78
2022/08/03 00:22:56;;;;;;;5.57;2.20;;;16.80;99.90;;;;;;5061675;28;20025;-78
2022/08/03 00:25:22;;;;;;;4.38;2.10;;;16.80;99.90;;;;;;5061546;28;20037;-79
2022/08/03 00:27:47;;;;;;;2.63;1.83;;;16.70;99.90;;;;;;5062235;28;20027;-78
2022/08/03 00:30:13;;;;;;;3.70;1.83;;;16.70;99.90;;;;;;5061288;28;20032;-78
2022/08/03 00:32:38;;;;;;;3.22;1.70;;;16.70;99.90;;;;;;5061730;28;20040;-78
2022/08/03 00:35:05;;;;;;;2.55;1.95;;;16.60;99.90;;;;;;5061663;28;20043;-78
2022/08/03 00:37:30;;;;;;;5.63;1.75;;;16.60;99.90;;;;;;5060809;28;20033;-79
2022/08/03 00:39:56;;;;;;;3.53;1.98;;;16.60;99.90;;;;;;5060425;28;20029;-78
2022/08/03 00:42:21;;;;;;;5.38;2.00;;;16.60;99.90;;;;;;5060981;28;20021;-78
2022/08/03 00:44:47;;;;;;;6.88;1.95;;;16.60;99.90;;;;;;5061731;28;20039;-78
2022/08/03 00:47:12;;;;;;;3.17;1.58;;;16.60;99.90;;;;;;5061189;28;20476;-78
2022/08/03 00:49:39;;;;;;;3.60;1.52;;;16.60;99.90;;;;;;5061976;28;20520;-78
2022/08/03 00:52:07;;;;;;;5.68;2.22;;;16.60;99.90;;;;;;5062495;28;20056;-75
2022/08/03 00:54:34;;;;;;;4.07;2.22;;;16.50;99.90;;;;;;5060923;28;20052;-76
2022/08/03 00:57:00;;;;;;;4.05;2.08;;;16.60;99.90;;;;;;5061539;28;20032;-75
2022/08/03 00:59:26;;;;;;;4.68;1.80;;;16.60;99.90;;;;;;5062343;28;20036;-76
2022/08/03 01:01:52;;;;;;;5.80;1.80;;;16.50;99.90;;;;;;5061753;28;20086;-75
2022/08/03 01:04:18;;;;;;;4.13;1.85;;;16.50;99.90;;;;;;5062800;28;20099;-76
2022/08/03 01:07:02;;;;;;;4.65;2.05;;;16.50;99.90;;;;;;5061118;28;20036;-75
2022/08/03 01:09:55;;;;;;;2.50;1.70;;;16.40;99.90;;;;;;5061344;28;20043;-75
2022/08/03 01:12:56;;;;;;;6.70;2.10;;;16.40;99.90;;;;;;5058774;28;20421;-77
2022/08/03 01:15:25;;;;;;;2.53;1.42;;;16.40;99.90;;;;;;5061649;28;20121;-78
2022/08/03 01:17:58;;;;;;;3.38;1.90;;;16.30;99.90;;;;;;5059849;28;20127;-78
2022/08/03 01:20:30;;;;;;;3.15;1.98;;;16.30;99.90;;;;;;5060074;28;20033;-82
2022/08/03 01:23:02;;;;;;;2.47;1.85;;;16.20;99.90;;;;;;5059924;28;20825;-81
2022/08/03 01:25:33;;;;;;;2.50;1.88;;;16.20;99.90;;;;;;5060094;28;20394;-81
2022/08/03 01:28:29;;;;;;;3.60;1.90;;;16.20;99.90;;;;;;5057822;28;20031;-81
2022/08/03 01:30:59;;;;;;;2.95;1.80;;;16.20;99.90;;;;;;5018769;28;20044;-81
2022/08/03 01:33:30;;;;;;;5.07;2.10;;;16.10;99.90;;;;;;5059595;28;20021;-81
2022/08/03 01:36:03;;;;;;;4.93;1.85;;;16.10;99.90;;;;;;5059351;28;20039;-81
2022/08/03 01:38:32;;;;;;;3.92;1.63;;;16.10;99.90;;;;;;5058643;28;20036;-82
2022/08/03 01:41:07;;;;;;;3.75;1.80;;;16.10;99.90;;;;;;5058782;28;20036;-81
2022/08/03 01:43:35;;;;;;;5.05;2.30;;;16.00;99.90;;;;;;5059909;28;20028;-81
2022/08/03 01:46:02;;;;;;;5.15;1.83;;;15.90;99.90;;;;;;5059514;28;20107;-81
2022/08/03 01:48:30;;;;;;;2.30;1.80;;;15.90;99.90;;;;;;5058737;28;20025;-81
2022/08/03 01:50:58;;;;;;;4.03;2.00;;;15.90;99.90;;;;;;5060094;28;20485;-82
2022/08/03 01:53:24;;;;;;;2.63;1.83;;;15.80;99.90;;;;;;5058479;28;20031;-81
2022/08/03 01:55:54;;;;;;;3.80;1.90;;;15.80;99.90;;;;;;5059039;28;20118;-82
2022/08/03 01:58:23;;;;;;;3.95;1.92;;;15.80;99.90;;;;;;5057340;28;20028;-81
2022/08/03 02:00:50;;;;;;;4.53;1.90;;;15.80;99.90;;;;;;5059124;28;20033;-81
2022/08/03 02:03:17;;;;;;;5.43;1.90;;;15.80;99.90;;;;;;5059501;28;20032;-82
2022/08/03 02:05:45;;;;;;;3.17;2.22;;;15.70;99.90;;;;;;5058573;28;20303;-81
2022/08/03 02:08:14;;;;;;;2.40;1.67;;;15.70;99.90;;;;;;5060002;28;20121;-81
2022/08/03 02:10:42;;;;;;;2.67;2.00;;;15.70;99.90;;;;;;5059323;28;20158;-81
2022/08/03 02:13:09;;;;;;;3.15;1.83;;;15.70;99.90;;;;;;5058240;28;20119;-81
2022/08/03 02:15:38;;;;;;;5.97;1.90;;;15.70;99.90;;;;;;5057800;28;20044;-82
2022/08/03 02:18:07;;;;;;;3.20;1.98;;;15.70;99.90;;;;;;5058964;28;20029;-81
2022/08/03 02:20:36;;;;;;;2.90;1.63;;;15.60;99.90;;;;;;5059539;28;20661;-81
2022/08/03 02:23:02;;;;;;;3.03;1.67;;;15.60;99.90;;;;;;5059034;28;20035;-81
2022/08/03 02:25:29;;;;;;;3.60;2.00;;;15.60;99.90;;;;;;5059380;28;20033;-81
2022/08/03 02:28:00;;;;;;;4.00;1.75;;;15.60;99.90;;;;;;5059006;28;20478;-82
2022/08/03 02:30:37;;;;;;;4.22;1.90;;;15.50;99.90;;;;;;5060169;28;20385;-81
2022/08/03 02:33:06;;;;;;;2.85;1.67;;;15.50;99.90;;;;;;5059270;28;20373;-81
2022/08/03 02:35:34;;;;;;;5.28;1.80;;;15.50;99.90;;;;;;5059373;28;20044;-81
2022/08/03 02:38:02;;;;;;;2.22;1.52;;;15.50;99.90;;;;;;5059006;28;20428;-81
2022/08/03 02:40:30;;;;;;;3.58;1.73;;;15.40;99.90;;;;;;5057887;28;20035;-81
2022/08/03 02:42:59;;;;;;;2.72;1.80;;;15.40;99.90;;;;;;5058741;28;20366;-81
2022/08/03 02:45:27;;;;;;;5.28;2.25;;;15.40;99.90;;;;;;5058282;28;20025;-81
2022/08/03 02:47:58;;;;;;;4.40;1.77;;;15.40;99.90;;;;;;5058354;28;20021;-82
2022/08/03 02:50:26;;;;;;;3.42;1.98;;;15.40;99.90;;;;;;5057678;28;20492;-81
2022/08/03 02:52:53;;;;;;;4.43;2.08;;;15.40;99.90;;;;;;5059526;28;20525;-82
2022/08/03 02:55:21;;;;;;;6.90;2.17;;;15.30;99.90;;;;;;5055192;28;20404;-77
2022/08/03 02:57:48;;;;;;;3.67;1.73;;;15.30;99.90;;;;;;5059560;28;20025;-77
2022/08/03 03:00:14;;;;;;;3.28;1.80;;;15.30;99.90;;;;;;5059427;28;20441;-77
2022/08/03 03:02:41;;;;;;;3.65;1.70;;;15.30;99.90;;;;;;5056432;28;20099;-78
2022/08/03 03:05:08;;;;;;;7.03;1.95;;;15.20;99.90;;;;;;5059919;28;20025;-78
2022/08/03 03:07:35;;;;;;;6.82;2.13;;;15.20;99.90;;;;;;5061397;28;20040;-77
2022/08/03 03:10:02;;;;;;;4.28;2.20;;;15.20;99.90;;;;;;5055659;28;20032;-78
2022/08/03 03:12:29;;;;;;;3.60;1.80;;;15.20;99.90;;;;;;5060594;28;20036;-78
2022/08/03 03:14:55;;;;;;;3.90;1.75;;;15.20;99.90;;;;;;5060073;28;20028;-77
2022/08/03 03:17:22;;;;;;;4.07;2.03;;;15.20;99.90;;;;;;5058923;28;20045;-76
2022/08/03 03:19:49;;;;;;;2.47;1.80;;;15.10;99.90;;;;;;5058145;28;20044;-78
2022/08/03 03:22:16;;;;;;;2.40;1.77;;;15.10;99.90;;;;;;5058432;28;20028;-78
2022/08/03 03:24:43;;;;;;;5.88;1.92;;;15.10;99.90;;;;;;5059868;28;20490;-77
2022/08/03 03:27:08;;;;;;;2.90;1.95;;;15.10;99.90;;;;;;5058744;28;20032;-78
2022/08/03 03:29:34;;;;;;;3.85;1.80;;;15.10;99.90;;;;;;5057767;28;20016;-78
2022/08/03 03:32:01;;;;;;;3.38;1.90;;;15.00;99.90;;;;;;5057169;28;20021;-78
2022/08/03 03:34:28;;;;;;;5.35;2.20;;;15.00;99.90;;;;;;5059876;28;20024;-77
2022/08/03 03:36:54;;;;;;;3.70;2.10;;;15.00;99.90;;;;;;5057791;28;20028;-77
2022/08/03 03:39:20;;;;;;;3.03;1.83;;;15.00;99.90;;;;;;5061089;28;20046;-78
2022/08/03 03:41:45;;;;;;;8.15;2.33;;;14.90;99.90;;;;;;5061852;28;20119;-78
2022/08/03 03:44:11;;;;;;;5.35;2.08;;;15.00;99.90;;;;;;5064457;28;20055;-77
2022/08/03 03:46:38;;;;;;;6.95;2.22;;;14.90;99.90;;;;;;5060760;28;20024;-77
2022/08/03 03:49:07;;;;;;;3.38;2.03;;;14.80;99.90;;;;;;5063108;28;20476;-78
2022/08/03 03:51:33;;;;;;;4.32;1.80;;;14.80;99.90;;;;;;5062306;28;20107;-78
2022/08/03 03:54:01;;;;;;;3.50;1.85;;;14.80;99.90;;;;;;5060785;28;20516;-78
2022/08/03 03:56:27;;;;;;;4.97;2.05;;;14.80;99.90;;;;;;5060865;28;20060;-78
2022/08/03 03:58:53;;;;;;;2.72;1.67;;;14.80;99.90;;;;;;5060807;28;20032;-78
2022/08/03 04:01:19;;;;;;;5.40;2.03;;;14.80;99.90;;;;;;5061639;28;20024;-78
2022/08/03 04:03:45;;;;;;;5.60;2.03;;;14.70;99.90;;;;;;5060750;28;20032;-78
2022/08/03 04:11:46;;;;;;;4.53;2.23;;;14.70;99.90;;;;;;5061350;28;20036;-78
2022/08/03 04:14:40;;;;;;;6.75;2.35;;;14.70;99.90;;;;;;5062056;28;20060;-78
2022/08/03 04:17:08;;;;;;;4.78;1.95;;;14.70;99.90;;;;;;5059967;28;20040;-75
2022/08/03 04:19:42;;;;;;;5.32;2.08;;;14.70;99.90;;;;;;5061271;28;20111;-75
2022/08/03 04:22:10;;;;;;;7.05;2.40;;;14.70;99.90;;;;;;5062714;28;20499;-75
2022/08/03 04:25:01;;;;;;;6.03;2.00;;;14.80;99.90;;;;;;5060718;28;20041;-75
2022/08/03 04:27:35;;;;;;;5.93;2.20;;;14.80;99.90;;;;;;5056024;28;20036;-74
2022/08/03 04:30:04;;;;;;;3.20;2.08;;;14.80;99.90;;;;;;5062125;28;20028;-71
2022/08/03 04:32:30;;;;;;;3.67;2.00;;;14.80;99.90;;;;;;5061261;28;20041;-71
2022/08/03 04:34:56;;;;;;;6.40;2.05;;;14.90;99.90;;;;;;5062246;28;20533;-71
2022/08/03 04:37:38;;;;;;;3.70;1.83;;;14.90;99.90;;;;;;5061656;28;20060;-71
2022/08/03 04:40:07;;;;;;;7.10;2.30;;;15.00;99.90;;;;;;5061451;28;20157;-70
2022/08/03 04:42:34;;;;;;;7.00;2.22;;;15.00;99.90;;;;;;5062627;28;20029;-71
2022/08/03 04:45:02;;;;;;;7.72;2.30;;;15.10;99.90;;;;;;5060834;28;20033;-71
2022/08/03 04:47:31;;;;;;;3.08;1.95;;;15.10;99.90;;;;;;5060301;28;20055;-71
2022/08/03 04:49:59;;;;;;;4.93;2.28;;;15.10;99.90;;;;;;5060506;28;20043;-71
2022/08/03 04:52:24;;;;;;;5.25;2.10;;;15.20;99.90;;;;;;5062889;28;20044;-71
2022/08/03 04:54:50;;;;;;;3.70;2.25;;;15.20;99.90;;;;;;5061334;28;20056;-71
2022/08/03 04:57:15;;;;;;;6.07;2.10;;;15.20;99.90;;;;;;5061195;28;20032;-71
2022/08/03 04:59:41;;;;;;;5.07;2.20;;;15.20;99.90;;;;;;5063476;28;20017;-71
2022/08/03 05:02:07;;;;;;;4.35;2.40;;;15.30;99.90;;;;;;5059402;28;20025;-71
2022/08/03 05:04:32;;;;;;;6.00;2.25;;;15.40;99.90;;;;;;5062284;28;20075;-70
2022/08/03 05:06:58;;;;;;;4.13;2.22;;;15.40;99.90;;;;;;5054189;28;20103;-71
2022/08/03 05:09:23;;;;;;;3.50;1.98;;;15.50;99.90;;;;;;5061857;28;20090;-71
2022/08/03 05:11:49;;;;;;;6.85;2.35;;;15.50;99.90;;;;;;5061885;28;20033;-71
2022/08/03 05:14:14;;;;;;;4.28;2.63;;;15.60;99.90;;;;;;5062622;28;20021;-71
2022/08/03 05:16:40;;;;;;;4.13;2.47;;;15.70;99.90;;;;;;5062555;28;20024;-71
2022/08/03 05:19:07;;;;;;;4.00;2.25;;;15.80;99.90;;;;;;5058804;28;20044;-71
2022/08/03 05:21:33;;;;;;;4.05;2.80;;;15.90;99.90;;;;;;5057734;28;20033;-71
2022/08/03 05:23:58;;;;;;;4.95;2.78;;;16.00;99.90;;;;;;5062301;28;20438;-74
2022/08/03 05:26:29;;;;;;;4.80;2.67;;;16.10;99.90;;;;;;5059729;28;20488;-71
2022/08/03 05:28:54;;;;;;;3.78;2.30;;;16.10;99.90;;;;;;5076553;28;20051;-74
2022/08/03 05:31:20;;;;;;;5.85;2.53;;;16.20;99.90;;;;;;5059476;28;20060;-70
2022/08/03 05:33:47;;;;;;;2.92;2.15;;;16.40;99.90;;;;;;5060259;28;20056;-71
2022/08/03 05:36:13;;;;;;;5.82;3.08;;;16.50;99.90;;;;;;5058207;28;20107;-70
2022/08/03 05:38:38;;;;;;;4.10;2.35;;;16.60;99.90;;;;;;5058061;28;20115;-71
2022/08/03 05:41:04;;;;;;;7.85;2.70;;;16.70;99.90;;;;;;5061542;28;20112;-72
2022/08/03 05:43:30;;;;;;;4.57;2.53;;;16.90;99.90;;;;;;5059038;28;20439;-71
2022/08/03 05:45:57;;;;;;;5.38;2.67;;;17.00;99.90;;;;;;5058347;28;20021;-72
2022/08/03 05:48:23;;;;;;;4.10;2.28;;;17.10;99.90;;;;;;5058978;28;20036;-72
2022/08/03 05:50:53;;;;;;;4.05;2.42;;;17.30;99.90;;;;;;5057648;28;20473;-72
2022/08/03 05:53:19;;;;;;;2.80;2.13;;;17.40;99.90;;;;;;5058808;28;20868;-71
2022/08/03 05:55:44;;;;;;;3.78;2.20;;;17.50;99.90;;;;;;5055530;28;20055;-71
2022/08/03 05:58:12;;;;;;;6.57;2.38;;;17.60;99.90;;;;;;5054941;28;20111;-71
2022/08/03 06:00:38;;;;;;;7.28;2.30;;;17.80;99.90;;;;;;5050170;28;20549;-71
2022/08/03 06:03:04;;;;;;;7.50;2.28;;;17.90;99.90;;;;;;5049005;28;20112;-70
2022/08/03 06:05:30;;;;;;;4.82;2.63;;;18.10;99.90;;;;;;5050267;28;20025;-71
2022/08/03 06:07:55;;;;;;;2.72;2.20;;;18.20;99.90;;;;;;5048706;28;20025;-71
2022/08/03 06:10:21;;;;;;;5.22;2.60;;;18.40;99.90;;;;;;5049441;28;20029;-71
2022/08/03 06:12:48;;;;;;;2.75;2.03;;;18.50;99.90;;;;;;5048420;28;20071;-71
2022/08/03 06:15:14;;;;;;;5.47;2.20;;;18.70;99.90;;;;;;5050248;28;20025;-71
2022/08/03 06:17:45;;;;;;;4.25;2.33;;;18.90;99.90;;;;;;5048045;28;20124;-71
2022/08/03 06:20:10;;;;;;;4.90;2.38;;;19.00;99.90;;;;;;5050810;28;20478;-71
2022/08/03 06:22:36;;;;;;;6.28;2.30;;;19.10;99.90;;;;;;5050701;28;20096;-71
2022/08/03 06:25:02;;;;;;;4.28;2.20;;;19.20;99.90;;;;;;5064775;28;20366;-71
2022/08/03 06:27:27;;;;;;;5.07;1.90;;;19.40;99.90;;;;;;5049718;28;20025;-71
2022/08/03 06:29:53;;;;;;;6.00;1.80;;;19.50;99.90;;;;;;5050734;28;20434;-71
2022/08/03 06:32:21;;;;;;;2.75;1.90;;;19.60;99.90;;;;;;5058552;28;20027;-71
2022/08/03 06:34:47;;;;;;;5.78;2.30;;;19.80;99.90;;;;;;5052908;28;20379;-71
2022/08/03 06:37:13;;;;;;;3.30;2.00;;;19.90;99.90;;;;;;5050731;28;20017;-71
2022/08/03 06:39:38;;;;;;;4.05;2.15;;;20.10;99.90;;;;;;5051703;28;20370;-71
2022/08/03 06:42:04;;;;;;;4.70;2.10;;;20.20;99.90;;;;;;5059016;28;20055;-71
2022/08/03 06:44:29;;;;;;;6.53;2.50;;;20.30;99.90;;;;;;5061139;28;20012;-71
2022/08/03 06:46:55;;;;;;;6.95;2.08;;;20.40;99.90;;;;;;5058557;28;20036;-73
2022/08/03 06:49:21;;;;;;;5.03;2.30;;;20.50;99.90;;;;;;5068004;28;20435;-73
2022/08/03 06:51:47;;;;;;;3.53;2.03;;;20.60;99.90;;;;;;5059431;28;20119;-74
2022/08/03 06:54:12;;;;;;;4.60;2.20;;;20.70;99.90;;;;;;5049292;28;20092;-73
2022/08/03 06:56:38;;;;;;;2.83;1.95;;;20.80;99.90;;;;;;5047516;28;20108;-74
2022/08/03 06:59:03;;;;;;;4.60;2.10;;;20.90;99.90;;;;;;5048441;28;20044;-74
2022/08/03 07:01:29;;;;;;;4.15;2.13;;;21.00;99.90;;;;;;5047748;28;20074;-73
2022/08/03 07:03:55;;;;;;;5.05;2.03;;;21.10;99.90;;;;;;5049769;28;20027;-74
2022/08/03 07:06:20;;;;;;;2.65;1.85;;;21.10;99.90;;;;;;5049927;28;20028;-74
2022/08/03 07:08:46;;;;;;;6.18;2.08;;;21.20;99.90;;;;;;5050203;28;20086;-74
2022/08/03 07:11:12;;;;;;;6.63;1.98;;;21.30;99.90;;;;;;5049837;28;20377;-73
2022/08/03 07:13:40;;;;;;;4.65;2.30;;;21.40;99.90;;;;;;5044449;28;20036;-74
2022/08/03 07:16:05;;;;;;;4.78;2.05;;;21.40;99.90;;;;;;5048143;28;20116;-70
2022/08/03 07:18:31;;;;;;;10.85;3.05;;;21.50;99.90;;;;;;5050221;28;20167;-71
2022/08/03 07:20:57;;;;;;;10.00;2.85;;;21.60;99.90;;;;;;5049748;28;20083;-74
2022/08/03 07:23:23;;;;;;;5.10;2.70;;;21.70;99.90;;;;;;5043480;28;20021;-74
2022/08/03 07:25:49;;;;;;;11.15;3.35;;;21.80;99.90;;;;;;5049715;28;20017;-74
2022/08/03 07:28:15;;;;;;;8.73;2.67;;;21.90;99.90;;;;;;5049082;28;20028;-74
2022/08/03 07:30:40;;;;;;;8.10;3.10;;;22.00;99.90;;;;;;5049561;28;20033;-74
2022/08/03 07:33:06;;;;;;;10.43;2.80;;;22.10;99.90;;;;;;5049447;28;20465;-74
2022/08/03 07:35:32;;;;;;;11.13;3.05;;;22.20;99.90;;;;;;5048019;28;20040;-74
2022/08/03 07:37:58;;;;;;;10.77;2.90;;;22.40;99.90;;;;;;5050261;28;20102;-74
2022/08/03 07:40:23;;;;;;;9.98;3.00;;;22.40;99.90;;;;;;5049899;28;20033;-74
2022/08/03 07:42:51;;;;;;;17.13;4.10;;;22.60;99.90;;;;;;5050036;28;20025;-71
2022/08/03 07:45:17;;;;;;;10.98;3.60;;;22.60;99.90;;;;;;5055287;28;20025;-74
2022/08/03 07:47:42;;;;;;;10.93;2.47;;;22.70;99.90;;;;;;5047216;28;20028;-74
2022/08/03 07:50:08;;;;;;;8.63;2.70;;;22.80;99.90;;;;;;5049508;28;20551;-74
2022/08/03 07:52:50;;;;;;;6.13;2.50;;;22.90;99.90;;;;;;5049734;28;20025;-74
2022/08/03 07:55:17;;;;;;;4.78;2.40;;;23.00;99.90;;;;;;5049249;28;20041;-71
2022/08/03 07:57:42;;;;;;;6.00;2.22;;;23.10;99.90;;;;;;5047116;28;20072;-71
2022/08/03 08:00:17;;;;;;;4.90;2.50;;;23.20;99.90;;;;;;5049322;28;20068;-71
2022/08/03 08:02:43;;;;;;;;;;;23.30;99.90;;;;;;5050126;28;20025;-71
2022/08/03 08:05:09;;;;;;;3.40;2.20;;;23.30;99.90;;;;;;5049886;28;19905;-72
2022/08/03 08:07:36;;;;;;;4.63;2.22;;;23.40;99.90;;;;;;5049218;28;20477;-71
2022/08/03 08:10:02;;;;;;;6.57;2.15;;;23.60;99.90;;;;;;5049336;28;20037;-71
2022/08/03 08:12:30;;;;;;;7.10;2.90;;;23.70;99.90;;;;;;5045560;28;20044;-72
2022/08/03 08:14:56;;;;;;;10.35;3.63;;;23.80;99.90;;;;;;5048612;28;20044;-78
2022/08/03 08:17:21;;;;;;;6.03;2.70;;;23.90;99.90;;;;;;5047773;28;20041;-78
2022/08/03 08:19:47;;;;;;;5.25;2.30;;;24.00;99.90;;;;;;5049636;28;20021;-78
2022/08/03 08:22:12;;;;;;;6.85;2.22;;;24.10;99.90;;;;;;5049483;28;20033;-79
2022/08/03 08:24:38;;;;;;;5.18;2.05;;;24.10;99.90;;;;;;5052466;28;20027;-78
2022/08/03 08:27:04;;;;;;;2.80;1.95;;;24.20;99.90;;;;;;5053276;28;20824;-79
2022/08/03 08:29:29;;;;;;;6.13;2.40;;;24.30;99.90;;;;;;5052659;28;20439;-81
2022/08/03 08:31:55;;;;;;;9.63;2.53;;;24.30;99.90;;;;;;5053152;28;20076;-81
2022/08/03 08:34:21;;;;;;;4.43;2.45;;;24.50;99.90;;;;;;5051395;28;20522;-81
2022/08/03 08:36:46;;;;;;;4.03;1.60;;;24.70;99.90;;;;;;5053313;28;20079;-75
2022/08/03 08:39:12;;;;;;;4.78;1.60;;;24.70;99.90;;;;;;5057808;28;20526;-76
2022/08/03 08:41:37;;;;;;;4.72;1.42;;;24.80;99.90;;;;;;5063562;28;20049;-76
2022/08/03 08:44:03;;;;;;;3.22;1.58;;;24.90;99.90;;;;;;5058764;28;20037;-76
2022/08/03 08:46:31;;;;;;;4.28;1.50;;;25.00;99.90;;;;;;5064797;28;20049;-75
2022/08/03 08:48:58;;;;;;;3.13;1.70;;;25.10;99.90;;;;;;5062287;28;20051;-76
2022/08/03 08:51:32;;;;;;;2.20;1.30;;;25.10;99.90;;;;;;5060863;28;20043;-76
2022/08/03 08:54:02;;;;;;;2.30;1.30;;;25.20;99.90;;;;;;5062085;28;20153;-76
2022/08/03 08:56:29;;;;;;;2.65;1.52;;;25.40;99.90;;;;;;5060498;28;20055;-76
2022/08/03 08:59:00;;;;;;;6.85;1.40;;;25.50;99.90;;;;;;5061919;28;20027;-75
2022/08/03 09:01:26;;;;;;;4.68;1.20;;;25.60;99.90;;;;;;5062312;28;20025;-76
2022/08/03 09:03:53;;;;;;;1.77;1.30;;;25.70;99.90;;;;;;5061991;28;20447;-76
2022/08/03 09:06:19;;;;;;;5.63;1.50;;;25.70;99.90;;;;;;5061276;28;20477;-76
2022/08/03 09:08:44;;;;;;;4.75;1.42;;;25.90;99.90;;;;;;5060940;28;20040;-76
2022/08/03 09:11:11;;;;;;;2.45;1.60;;;26.00;99.90;;;;;;5059202;28;20021;-76
2022/08/03 09:13:36;;;;;;;3.85;1.45;;;26.10;99.90;;;;;;5060624;28;20179;-75
2022/08/03 09:16:10;;;;;;;3.28;1.30;;;26.20;99.90;;;;;;5058887;28;20108;-77
2022/08/03 09:18:37;;;;;;;5.50;1.30;;;26.30;99.90;;;;;;5056200;28;20032;-81
2022/08/03 09:21:32;;;;;;;2.55;1.25;;;26.40;99.90;;;;;;5058857;28;20354;-81
2022/08/03 09:23:59;;;;;;;1.85;1.30;;;26.60;99.90;;;;;;5048233;28;20037;-81
2022/08/03 09:26:24;;;;;;;4.30;1.30;;;26.70;99.90;;;;;;5057305;28;20083;-81
2022/08/03 09:29:08;;;;;;;5.45;1.27;;;26.80;99.90;;;;;;5050748;28;20021;-81
2022/08/03 09:31:35;;;;;;;2.30;1.48;;;27.00;99.90;;;;;;5049612;28;20021;-80
2022/08/03 09:34:05;;;;;;;2.80;1.20;;;27.10;99.90;;;;;;5051116;28;20032;-80
2022/08/03 09:36:35;;;;;;;3.70;1.20;;;27.40;99.90;;;;;;5050742;28;20466;-80
2022/08/03 09:39:05;;;;;;;2.97;1.30;;;27.60;99.90;;;;;;5050933;28;20496;-81
2022/08/03 09:41:32;;;;;;;4.90;1.20;;;27.90;99.90;;;;;;5051676;28;20017;-77
2022/08/03 09:43:58;;;;;;;5.80;1.17;;;28.20;99.90;;;;;;5052342;28;20039;-77
2022/08/03 09:46:24;;;;;;;3.08;1.33;;;28.40;99.90;;;;;;5050444;28;20112;-79
2022/08/03 09:48:49;;;;;;;2.38;1.20;;;28.60;99.90;;;;;;5052805;28;20079;-78
2022/08/03 09:51:17;;;;;;;1.95;1.20;;;28.90;99.90;;;;;;5052223;28;20032;-78
2022/08/03 09:53:46;;;;;;;5.35;1.42;;;29.00;99.90;;;;;;5051907;28;20052;-79
2022/08/03 09:56:12;;;;;;;3.33;1.20;;;29.20;99.90;;;;;;5052076;28;20133;-79
2022/08/03 09:58:46;;;;;;;5.40;1.48;;;29.40;99.90;;;;;;5051775;28;20432;-79
2022/08/03 10:01:12;;;;;;;2.70;1.25;;;29.50;99.90;;;;;;5052079;28;20121;-77
2022/08/03 10:03:39;;;;;;;2.72;1.08;;;29.80;99.90;;;;;;5051666;28;20111;-75
2022/08/03 10:06:24;;;;;;;3.78;1.17;;;30.00;99.50;;;;;;5051662;28;20021;-75
2022/08/03 10:09:04;;;;;;;2.30;1.15;;;30.10;99.80;;;;;;5050417;28;20070;-76
2022/08/03 10:11:31;;;;;;;3.05;1.48;;;30.30;99.40;;;;;;5051428;28;20095;-75
2022/08/03 10:13:57;;;;;;;3.30;1.20;;;30.50;97.70;;;;;;5047597;28;20469;-75
2022/08/03 10:16:22;;;;;;;3.92;1.10;;;30.60;95.60;;;;;;5051409;28;20039;-75
2022/08/03 10:18:48;;;;;;;1.85;0.95;;;30.80;95.90;;;;;;5051213;28;20390;-75
2022/08/03 10:21:21;;;;;;;3.88;1.20;;;30.90;94.10;;;;;;5049201;28;20099;-80
2022/08/03 10:23:48;;;;;;;3.78;1.27;;;31.10;93.50;;;;;;5049481;28;20017;-78
2022/08/03 10:26:21;;;;;;;2.08;1.10;;;31.20;96.20;;;;;;5051497;28;20402;-76
2022/08/03 10:28:51;;;;;;;2.70;1.05;;;31.40;92.00;;;;;;5051156;28;20033;-75
2022/08/03 10:31:21;;;;;;;3.83;1.00;;;31.50;90.70;;;;;;5051013;28;20385;-76
2022/08/03 10:33:50;;;;;;;4.72;1.48;;;31.50;89.40;;;;;;5051009;28;20028;-75
2022/08/03 10:36:17;;;;;;;1.15;0.82;;;31.50;90.40;;;;;;5051058;28;20100;-75
2022/08/03 10:38:46;;;;;;;2.38;1.13;;;31.70;85.80;;;;;;5050007;28;20031;-75
2022/08/03 10:41:14;;;;;;;4.53;1.35;;;31.80;86.50;;;;;;5052142;28;20481;-75
2022/08/03 10:43:51;;;;;;;1.52;1.10;;;31.90;88.40;;;;;;5050825;28;20050;-75
2022/08/03 10:46:20;;;;;;;2.58;1.10;;;32.10;87.90;;;;;;5050987;28;20040;-77
2022/08/03 10:48:48;;;;;;;3.22;0.90;;;32.20;85.90;;;;;;5050628;28;20116;-76
2022/08/03 10:51:14;;;;;;;1.83;1.15;;;32.30;84.20;;;;;;5050382;28;20039;-75
2022/08/03 10:53:42;;;;;;;1.20;1.10;;;32.20;80.80;;;;;;5058723;28;20066;-75
2022/08/03 10:59:47;;;;;;;4.15;1.10;;;32.20;81.80;;;;;;5050166;28;20090;-76
2022/08/03 11:02:14;;;;;;;1.15;1.05;;;32.10;76.00;;;;;;5041917;28;20025;-76
2022/08/03 11:04:40;;;;;;;3.00;0.95;;;32.40;79.10;;;;;;5050559;28;20044;-76
2022/08/03 11:07:18;;;;;;;2.35;1.25;;;32.60;76.50;;;;;;5049987;28;20028;-77
2022/08/03 11:09:49;;;;;;;3.55;1.30;;;32.70;79.60;;;;;;5049805;28;20032;-76
2022/08/03 11:12:29;;;;;;;2.88;1.08;;;32.80;76.60;;;;;;5048574;28;20034;-77
2022/08/03 11:14:56;;;;;;;1.48;1.10;;;32.90;75.10;;;;;;5050868;28;20029;-77
2022/08/03 11:17:22;;;;;;;1.35;0.93;;;33.10;76.00;;;;;;5050560;28;20028;-77
2022/08/03 11:19:51;;;;;;;4.15;1.35;;;33.00;74.10;;;;;;5050867;28;20025;-79
2022/08/03 11:22:18;;;;;;;2.70;1.20;;;32.80;79.00;;;;;;5037842;28;20029;-79
2022/08/03 11:24:50;;;;;;;12.30;2.72;;;32.90;74.60;;;;;;5051574;28;20055;-79
2022/08/03 11:27:18;;;;;;;2.17;1.05;;;33.00;73.60;;;;;;5050389;28;20883;-79
2022/08/03 11:30:09;;;;;;;3.38;0.90;;;33.10;70.40;;;;;;5050594;28;20033;-79
2022/08/03 11:32:43;;;;;;;2.55;1.00;;;33.30;69.90;;;;;;5048533;28;20174;-83
2022/08/03 11:35:29;;;;;;;2.42;1.25;;;33.40;69.30;;;;;;5049003;28;20029;-83
2022/08/03 11:38:01;;;;;;;1.42;1.00;;;33.40;73.70;;;;;;5049246;28;20055;-83
2022/08/03 11:40:38;;;;;;;1.90;0.90;;;33.70;70.00;;;;;;5049367;28;20040;-82
2022/08/03 11:43:05;;;;;;;1.20;0.98;;;33.70;66.10;;;;;;5049290;28;20036;-83
2022/08/03 11:45:31;;;;;;;2.53;1.20;;;33.50;67.00;;;;;;5047457;28;20013;-83
2022/08/03 11:48:00;;;;;;;1.13;0.95;;;33.40;71.70;;;;;;5049196;28;20033;-83
2022/08/03 11:50:34;;;;;;;3.08;1.13;;;33.50;69.90;;;;;;5048708;28;20021;-83
2022/08/03 11:53:00;;;;;;;3.20;1.05;;;33.80;68.20;;;;;;5048013;28;20443;-83
2022/08/03 11:55:25;;;;;;;4.82;1.02;;;33.90;66.20;;;;;;5048496;28;20080;-83
2022/08/03 11:57:51;;;;;;;3.60;1.02;;;33.70;66.90;;;;;;5049298;28;20331;-83
2022/08/03 12:00:28;;;;;;;1.52;1.00;;;33.60;67.70;;;;;;5053278;28;20029;-83
2022/08/03 12:03:10;;;;;;;4.43;1.08;;;33.50;70.80;;;;;;5053313;28;20663;-83
2022/08/03 12:05:38;;;;;;;3.10;1.17;;;33.40;69.00;;;;;;5052525;28;20025;-83
2022/08/03 12:08:05;;;;;;;3.10;0.90;;;33.80;65.70;;;;;;5052699;28;20091;-77
2022/08/03 12:10:30;;;;;;;1.65;1.10;;;34.10;66.90;;;;;;5053177;28;20531;-77
2022/08/03 12:12:58;;;;;;;3.13;0.82;;;34.20;69.70;;;;;;5047523;28;20033;-77
2022/08/03 12:15:30;;;;;;;2.50;0.88;;;34.50;68.00;;;;;;5051098;28;20588;-77
2022/08/03 12:17:56;;;;;;;1.73;1.10;;;34.70;67.60;;;;;;5053613;28;20036;-77
2022/08/03 12:20:25;;;;;;;2.10;1.23;;;34.90;62.80;;;;;;5060139;28;20068;-77
2022/08/03 12:22:51;;;;;;;5.32;1.23;;;35.10;60.80;;;;;;5052536;28;20040;-77
2022/08/03 12:25:23;;;;;;;2.97;1.00;;;35.20;63.50;;;;;;5052996;28;20470;-77
2022/08/03 12:27:50;;;;;;;1.50;1.00;;;35.30;61.30;;;;;;5052863;28;20025;-77
2022/08/03 12:30:16;;;;;;;2.50;1.00;;;35.50;58.80;;;;;;5061709;28;20759;-77
2022/08/03 12:32:42;;;;;;;4.15;1.30;;;35.40;62.70;;;;;;5051841;28;20035;-79
2022/08/03 12:35:08;;;;;;;1.98;0.98;;;35.50;58.90;;;;;;5048151;28;20759;-79
2022/08/03 12:37:35;;;;;;;5.10;1.35;;;35.90;57.40;;;;;;5053053;28;20033;-79
2022/08/03 12:40:03;;;;;;;3.63;1.15;;;35.80;56.80;;;;;;5051117;28;20032;-81
2022/08/03 12:42:30;;;;;;;2.10;1.13;;;35.60;57.80;;;;;;5050317;28;20541;-79
2022/08/03 12:44:56;;;;;;;2.50;0.90;;;35.60;58.50;;;;;;5045319;28;20104;-79
2022/08/03 12:47:21;;;;;;;1.67;1.00;;;35.80;60.30;;;;;;5049949;28;20109;-79
2022/08/03 12:49:49;;;;;;;7.20;1.30;;;36.10;55.90;;;;;;5054413;28;20028;-79
2022/08/03 12:52:16;;;;;;;2.83;1.00;;;36.20;55.50;;;;;;5049032;28;20025;-79
2022/08/03 12:54:52;;;;;;;1.60;1.02;;;36.10;58.10;;;;;;5053172;28;20041;-79
2022/08/03 12:57:18;;;;;;;8.52;1.25;;;36.00;55.90;;;;;;5054054;28;20024;-79
2022/08/03 12:59:47;;;;;;;1.92;1.10;;;36.20;55.40;;;;;;5051877;28;20489;-79